sensor_id;sensor_type;location;lat;lon;timestamp;P1;durP1;ratioP1;P2;durP2;ratioP2
57746;SDS011;43580;44.014;20.466;2023-12-07T00:02:06;151.82;;;79.75;;
57746;SDS011;43580;44.014;20.466;2023-12-07T00:04:35;146.85;;;82.88;;
57746;SDS011;43580;44.014;20.466;2023-12-07T00:07:01;166.07;;;90.35;;
57746;SDS011;43580;44.014;20.466;2023-12-07T00:09:27;118.40;;;68.60;;
57746;SDS011;43580;44.014;20.466;2023-12-07T00:11:53;126.75;;;72.03;;
57746;SDS011;43580;44.014;20.466;2023-12-07T00:14:19;134.65;;;82.70;;
57746;SDS011;43580;44.014;20.466;2023-12-07T00:16:45;129.02;;;78.75;;
57746;SDS011;43580;44.014;20.466;2023-12-07T00:19:11;127.90;;;75.40;;
57746;SDS011;43580;44.014;20.466;2023-12-07T00:21:38;108.78;;;64.15;;
57746;SDS011;43580;44.014;20.466;2023-12-07T00:24:05;103.50;;;61.17;;
57746;SDS011;43580;44.014;20.466;2023-12-07T00:26:31;95.65;;;56.65;;
57746;SDS011;43580;44.014;20.466;2023-12-07T00:28:57;93.93;;;58.03;;
57746;SDS011;43580;44.014;20.466;2023-12-07T00:31:23;87.40;;;56.60;;
57746;SDS011;43580;44.014;20.466;2023-12-07T00:33:49;74.50;;;46.00;;
57746;SDS011;43580;44.014;20.466;2023-12-07T00:36:15;74.60;;;45.70;;
57746;SDS011;43580;44.014;20.466;2023-12-07T00:38:41;73.18;;;44.90;;
57746;SDS011;43580;44.014;20.466;2023-12-07T00:41:07;71.72;;;44.80;;
57746;SDS011;43580;44.014;20.466;2023-12-07T00:43:36;71.82;;;42.90;;
57746;SDS011;43580;44.014;20.466;2023-12-07T00:46:02;65.63;;;40.95;;
57746;SDS011;43580;44.014;20.466;2023-12-07T00:48:28;65.95;;;41.55;;
57746;SDS011;43580;44.014;20.466;2023-12-07T00:50:54;66.30;;;40.13;;
57746;SDS011;43580;44.014;20.466;2023-12-07T00:53:20;63.28;;;39.92;;
57746;SDS011;43580;44.014;20.466;2023-12-07T00:55:47;69.28;;;42.55;;
57746;SDS011;43580;44.014;20.466;2023-12-07T00:58:15;103.03;;;55.63;;
57746;SDS011;43580;44.014;20.466;2023-12-07T01:00:46;77.35;;;46.40;;
57746;SDS011;43580;44.014;20.466;2023-12-07T01:03:12;83.80;;;48.40;;
57746;SDS011;43580;44.014;20.466;2023-12-07T01:05:38;83.10;;;48.88;;
57746;SDS011;43580;44.014;20.466;2023-12-07T01:08:04;81.68;;;48.70;;
57746;SDS011;43580;44.014;20.466;2023-12-07T01:10:31;65.78;;;38.88;;
57746;SDS011;43580;44.014;20.466;2023-12-07T01:12:57;58.35;;;34.45;;
57746;SDS011;43580;44.014;20.466;2023-12-07T01:15:26;64.75;;;38.95;;
57746;SDS011;43580;44.014;20.466;2023-12-07T01:17:52;64.80;;;39.20;;
57746;SDS011;43580;44.014;20.466;2023-12-07T01:20:18;65.05;;;39.53;;
57746;SDS011;43580;44.014;20.466;2023-12-07T01:22:44;82.18;;;44.53;;
57746;SDS011;43580;44.014;20.466;2023-12-07T01:25:11;77.82;;;45.70;;
57746;SDS011;43580;44.014;20.466;2023-12-07T01:27:37;81.22;;;49.15;;
57746;SDS011;43580;44.014;20.466;2023-12-07T01:30:03;83.63;;;49.83;;
57746;SDS011;43580;44.014;20.466;2023-12-07T01:32:29;89.00;;;52.00;;
57746;SDS011;43580;44.014;20.466;2023-12-07T01:34:55;90.90;;;54.08;;
57746;SDS011;43580;44.014;20.466;2023-12-07T01:37:22;110.35;;;64.20;;
57746;SDS011;43580;44.014;20.466;2023-12-07T01:39:48;90.22;;;49.78;;
57746;SDS011;43580;44.014;20.466;2023-12-07T01:42:14;87.68;;;51.25;;
57746;SDS011;43580;44.014;20.466;2023-12-07T01:44:41;80.65;;;47.85;;
57746;SDS011;43580;44.014;20.466;2023-12-07T01:47:12;81.60;;;47.95;;
57746;SDS011;43580;44.014;20.466;2023-12-07T01:49:38;87.03;;;49.88;;
57746;SDS011;43580;44.014;20.466;2023-12-07T01:52:05;84.65;;;48.58;;
57746;SDS011;43580;44.014;20.466;2023-12-07T01:54:31;94.53;;;53.45;;
57746;SDS011;43580;44.014;20.466;2023-12-07T01:56:57;88.82;;;53.53;;
57746;SDS011;43580;44.014;20.466;2023-12-07T01:59:23;88.40;;;50.13;;
57746;SDS011;43580;44.014;20.466;2023-12-07T02:01:50;98.75;;;57.35;;
57746;SDS011;43580;44.014;20.466;2023-12-07T02:04:16;87.07;;;52.35;;
57746;SDS011;43580;44.014;20.466;2023-12-07T02:06:42;80.68;;;45.60;;
57746;SDS011;43580;44.014;20.466;2023-12-07T02:09:08;74.55;;;43.10;;
57746;SDS011;43580;44.014;20.466;2023-12-07T02:11:35;60.13;;;37.05;;
57746;SDS011;43580;44.014;20.466;2023-12-07T02:14:01;57.53;;;35.78;;
57746;SDS011;43580;44.014;20.466;2023-12-07T02:16:33;61.08;;;37.72;;
57746;SDS011;43580;44.014;20.466;2023-12-07T02:21:47;74.05;;;44.08;;
57746;SDS011;43580;44.014;20.466;2023-12-07T02:24:16;102.97;;;55.38;;
57746;SDS011;43580;44.014;20.466;2023-12-07T02:26:45;91.30;;;48.42;;
57746;SDS011;43580;44.014;20.466;2023-12-07T02:29:11;61.88;;;37.33;;
57746;SDS011;43580;44.014;20.466;2023-12-07T02:31:37;56.05;;;34.42;;
57746;SDS011;43580;44.014;20.466;2023-12-07T02:34:06;83.25;;;46.53;;
57746;SDS011;43580;44.014;20.466;2023-12-07T02:36:32;76.82;;;42.08;;
57746;SDS011;43580;44.014;20.466;2023-12-07T02:39:01;73.72;;;41.58;;
57746;SDS011;43580;44.014;20.466;2023-12-07T02:41:28;80.53;;;44.03;;
57746;SDS011;43580;44.014;20.466;2023-12-07T02:43:59;88.70;;;46.67;;
57746;SDS011;43580;44.014;20.466;2023-12-07T02:46:25;78.45;;;45.03;;
57746;SDS011;43580;44.014;20.466;2023-12-07T02:48:54;77.97;;;45.45;;
57746;SDS011;43580;44.014;20.466;2023-12-07T02:51:20;75.38;;;44.38;;
57746;SDS011;43580;44.014;20.466;2023-12-07T02:53:46;66.35;;;38.15;;
57746;SDS011;43580;44.014;20.466;2023-12-07T02:56:12;49.47;;;29.38;;
57746;SDS011;43580;44.014;20.466;2023-12-07T02:58:38;47.47;;;29.13;;
57746;SDS011;43580;44.014;20.466;2023-12-07T03:01:04;57.05;;;34.58;;
57746;SDS011;43580;44.014;20.466;2023-12-07T03:03:30;54.40;;;31.45;;
57746;SDS011;43580;44.014;20.466;2023-12-07T03:05:56;53.58;;;31.17;;
57746;SDS011;43580;44.014;20.466;2023-12-07T03:08:23;50.65;;;28.88;;
57746;SDS011;43580;44.014;20.466;2023-12-07T03:10:49;53.92;;;32.03;;
57746;SDS011;43580;44.014;20.466;2023-12-07T03:13:15;79.93;;;44.20;;
57746;SDS011;43580;44.014;20.466;2023-12-07T03:15:41;64.72;;;38.33;;
57746;SDS011;43580;44.014;20.466;2023-12-07T03:18:07;49.40;;;29.80;;
57746;SDS011;43580;44.014;20.466;2023-12-07T03:20:33;51.65;;;30.05;;
57746;SDS011;43580;44.014;20.466;2023-12-07T03:22:59;49.53;;;29.65;;
57746;SDS011;43580;44.014;20.466;2023-12-07T03:25:29;47.28;;;28.65;;
57746;SDS011;43580;44.014;20.466;2023-12-07T03:27:55;47.25;;;27.85;;
57746;SDS011;43580;44.014;20.466;2023-12-07T03:30:21;50.45;;;30.70;;
57746;SDS011;43580;44.014;20.466;2023-12-07T03:32:47;52.22;;;30.98;;
57746;SDS011;43580;44.014;20.466;2023-12-07T03:35:13;57.40;;;34.22;;
57746;SDS011;43580;44.014;20.466;2023-12-07T03:37:40;57.50;;;35.28;;
57746;SDS011;43580;44.014;20.466;2023-12-07T03:40:06;61.00;;;36.05;;
57746;SDS011;43580;44.014;20.466;2023-12-07T03:42:33;62.22;;;37.20;;
57746;SDS011;43580;44.014;20.466;2023-12-07T03:44:59;54.85;;;33.80;;
57746;SDS011;43580;44.014;20.466;2023-12-07T03:47:25;58.85;;;35.58;;
57746;SDS011;43580;44.014;20.466;2023-12-07T03:49:51;58.20;;;34.40;;
57746;SDS011;43580;44.014;20.466;2023-12-07T03:52:17;64.00;;;37.70;;
57746;SDS011;43580;44.014;20.466;2023-12-07T03:54:43;57.28;;;35.13;;
57746;SDS011;43580;44.014;20.466;2023-12-07T03:57:09;75.15;;;39.40;;
57746;SDS011;43580;44.014;20.466;2023-12-07T03:59:36;64.53;;;34.13;;
57746;SDS011;43580;44.014;20.466;2023-12-07T04:02:02;56.42;;;32.20;;
57746;SDS011;43580;44.014;20.466;2023-12-07T04:04:28;50.88;;;29.52;;
57746;SDS011;43580;44.014;20.466;2023-12-07T04:06:54;51.03;;;28.60;;
57746;SDS011;43580;44.014;20.466;2023-12-07T04:09:21;50.08;;;30.33;;
57746;SDS011;43580;44.014;20.466;2023-12-07T04:11:47;49.42;;;29.00;;
57746;SDS011;43580;44.014;20.466;2023-12-07T04:14:13;55.00;;;30.63;;
57746;SDS011;43580;44.014;20.466;2023-12-07T04:16:40;49.05;;;29.38;;
57746;SDS011;43580;44.014;20.466;2023-12-07T04:19:06;48.83;;;27.88;;
57746;SDS011;43580;44.014;20.466;2023-12-07T04:21:32;45.80;;;27.10;;
57746;SDS011;43580;44.014;20.466;2023-12-07T04:24:01;44.88;;;25.33;;
57746;SDS011;43580;44.014;20.466;2023-12-07T04:26:27;43.92;;;24.95;;
57746;SDS011;43580;44.014;20.466;2023-12-07T04:28:53;54.35;;;32.10;;
57746;SDS011;43580;44.014;20.466;2023-12-07T04:31:19;54.08;;;31.13;;
57746;SDS011;43580;44.014;20.466;2023-12-07T04:33:46;53.03;;;30.20;;
57746;SDS011;43580;44.014;20.466;2023-12-07T04:36:12;52.03;;;29.65;;
57746;SDS011;43580;44.014;20.466;2023-12-07T04:38:38;62.22;;;33.88;;
57746;SDS011;43580;44.014;20.466;2023-12-07T04:41:05;55.55;;;31.85;;
57746;SDS011;43580;44.014;20.466;2023-12-07T04:43:31;67.15;;;36.92;;
57746;SDS011;43580;44.014;20.466;2023-12-07T04:45:58;66.40;;;36.70;;
57746;SDS011;43580;44.014;20.466;2023-12-07T04:48:27;63.30;;;35.03;;
57746;SDS011;43580;44.014;20.466;2023-12-07T04:50:55;74.03;;;42.47;;
57746;SDS011;43580;44.014;20.466;2023-12-07T04:53:24;69.97;;;40.60;;
57746;SDS011;43580;44.014;20.466;2023-12-07T04:55:50;65.40;;;38.05;;
57746;SDS011;43580;44.014;20.466;2023-12-07T04:58:16;62.83;;;35.83;;
57746;SDS011;43580;44.014;20.466;2023-12-07T05:00:42;61.10;;;33.33;;
57746;SDS011;43580;44.014;20.466;2023-12-07T05:03:08;62.10;;;33.55;;
57746;SDS011;43580;44.014;20.466;2023-12-07T05:05:34;64.55;;;37.15;;
57746;SDS011;43580;44.014;20.466;2023-12-07T05:08:01;93.00;;;49.63;;
57746;SDS011;43580;44.014;20.466;2023-12-07T05:10:27;141.50;;;71.80;;
57746;SDS011;43580;44.014;20.466;2023-12-07T05:12:53;180.88;;;93.43;;
57746;SDS011;43580;44.014;20.466;2023-12-07T05:15:22;107.78;;;54.97;;
57746;SDS011;43580;44.014;20.466;2023-12-07T05:17:49;81.80;;;45.17;;
57746;SDS011;43580;44.014;20.466;2023-12-07T05:20:15;103.38;;;58.00;;
57746;SDS011;43580;44.014;20.466;2023-12-07T05:22:43;87.10;;;49.05;;
57746;SDS011;43580;44.014;20.466;2023-12-07T05:25:09;77.93;;;42.15;;
57746;SDS011;43580;44.014;20.466;2023-12-07T05:27:35;79.28;;;44.63;;
57746;SDS011;43580;44.014;20.466;2023-12-07T05:30:02;65.82;;;35.25;;
57746;SDS011;43580;44.014;20.466;2023-12-07T05:32:28;60.03;;;34.28;;
57746;SDS011;43580;44.014;20.466;2023-12-07T05:34:57;55.90;;;33.97;;
57746;SDS011;43580;44.014;20.466;2023-12-07T05:37:23;57.63;;;33.40;;
57746;SDS011;43580;44.014;20.466;2023-12-07T05:39:49;58.05;;;33.47;;
57746;SDS011;43580;44.014;20.466;2023-12-07T05:42:17;55.83;;;32.75;;
57746;SDS011;43580;44.014;20.466;2023-12-07T05:44:44;262.88;;;137.43;;
57746;SDS011;43580;44.014;20.466;2023-12-07T05:47:10;272.15;;;153.73;;
57746;SDS011;43580;44.014;20.466;2023-12-07T05:49:36;128.80;;;80.20;;
57746;SDS011;43580;44.014;20.466;2023-12-07T05:52:02;115.57;;;82.63;;
57746;SDS011;43580;44.014;20.466;2023-12-07T05:54:30;69.15;;;43.70;;
57746;SDS011;43580;44.014;20.466;2023-12-07T05:56:56;57.33;;;33.42;;
57746;SDS011;43580;44.014;20.466;2023-12-07T05:59:23;53.35;;;29.90;;
57746;SDS011;43580;44.014;20.466;2023-12-07T06:01:51;54.95;;;31.27;;
57746;SDS011;43580;44.014;20.466;2023-12-07T06:04:19;62.17;;;34.63;;
57746;SDS011;43580;44.014;20.466;2023-12-07T06:06:45;59.20;;;33.65;;
57746;SDS011;43580;44.014;20.466;2023-12-07T06:09:12;73.18;;;39.55;;
57746;SDS011;43580;44.014;20.466;2023-12-07T06:11:39;80.30;;;43.88;;
57746;SDS011;43580;44.014;20.466;2023-12-07T06:14:05;92.32;;;49.53;;
57746;SDS011;43580;44.014;20.466;2023-12-07T06:16:32;140.07;;;67.45;;
57746;SDS011;43580;44.014;20.466;2023-12-07T06:18:58;113.20;;;55.17;;
57746;SDS011;43580;44.014;20.466;2023-12-07T06:21:24;81.22;;;40.53;;
57746;SDS011;43580;44.014;20.466;2023-12-07T06:23:53;74.28;;;38.72;;
57746;SDS011;43580;44.014;20.466;2023-12-07T06:26:19;58.72;;;34.78;;
57746;SDS011;43580;44.014;20.466;2023-12-07T06:28:48;63.28;;;38.50;;
57746;SDS011;43580;44.014;20.466;2023-12-07T06:31:14;74.07;;;45.65;;
57746;SDS011;43580;44.014;20.466;2023-12-07T06:33:41;60.47;;;34.42;;
57746;SDS011;43580;44.014;20.466;2023-12-07T06:36:07;64.20;;;36.75;;
57746;SDS011;43580;44.014;20.466;2023-12-07T06:38:33;72.65;;;42.60;;
57746;SDS011;43580;44.014;20.466;2023-12-07T06:40:59;86.50;;;50.38;;
57746;SDS011;43580;44.014;20.466;2023-12-07T06:43:25;103.57;;;57.33;;
57746;SDS011;43580;44.014;20.466;2023-12-07T06:45:56;100.05;;;52.08;;
57746;SDS011;43580;44.014;20.466;2023-12-07T06:48:22;120.95;;;70.15;;
57746;SDS011;43580;44.014;20.466;2023-12-07T06:50:48;104.93;;;58.35;;
57746;SDS011;43580;44.014;20.466;2023-12-07T06:53:15;89.07;;;48.90;;
57746;SDS011;43580;44.014;20.466;2023-12-07T06:55:43;121.25;;;65.95;;
57746;SDS011;43580;44.014;20.466;2023-12-07T06:58:09;122.68;;;63.92;;
57746;SDS011;43580;44.014;20.466;2023-12-07T07:00:36;118.93;;;67.35;;
57746;SDS011;43580;44.014;20.466;2023-12-07T07:03:02;121.90;;;70.15;;
57746;SDS011;43580;44.014;20.466;2023-12-07T07:05:28;112.78;;;62.35;;
57746;SDS011;43580;44.014;20.466;2023-12-07T07:07:54;110.13;;;64.43;;
57746;SDS011;43580;44.014;20.466;2023-12-07T07:10:21;121.13;;;69.93;;
57746;SDS011;43580;44.014;20.466;2023-12-07T07:12:47;189.50;;;91.03;;
57746;SDS011;43580;44.014;20.466;2023-12-07T07:15:13;190.75;;;86.22;;
57746;SDS011;43580;44.014;20.466;2023-12-07T07:17:39;319.00;;;168.85;;
57746;SDS011;43580;44.014;20.466;2023-12-07T07:20:05;99.10;;;57.35;;
57746;SDS011;43580;44.014;20.466;2023-12-07T07:22:31;179.27;;;100.15;;
57746;SDS011;43580;44.014;20.466;2023-12-07T07:24:59;126.40;;;73.90;;
57746;SDS011;43580;44.014;20.466;2023-12-07T07:27:25;86.10;;;50.70;;
57746;SDS011;43580;44.014;20.466;2023-12-07T07:29:51;162.35;;;84.25;;
57746;SDS011;43580;44.014;20.466;2023-12-07T07:32:17;133.48;;;69.25;;
57746;SDS011;43580;44.014;20.466;2023-12-07T07:34:43;187.45;;;105.68;;
57746;SDS011;43580;44.014;20.466;2023-12-07T07:37:09;112.82;;;61.90;;
57746;SDS011;43580;44.014;20.466;2023-12-07T07:39:35;95.32;;;55.95;;
57746;SDS011;43580;44.014;20.466;2023-12-07T07:42:01;117.32;;;65.07;;
57746;SDS011;43580;44.014;20.466;2023-12-07T07:44:27;146.57;;;74.50;;
57746;SDS011;43580;44.014;20.466;2023-12-07T07:46:58;337.73;;;151.23;;
57746;SDS011;43580;44.014;20.466;2023-12-07T07:49:25;218.48;;;108.15;;
57746;SDS011;43580;44.014;20.466;2023-12-07T07:51:51;132.15;;;72.43;;
57746;SDS011;43580;44.014;20.466;2023-12-07T07:54:17;107.00;;;60.63;;
57746;SDS011;43580;44.014;20.466;2023-12-07T07:56:43;106.80;;;63.03;;
57746;SDS011;43580;44.014;20.466;2023-12-07T07:59:09;100.63;;;57.90;;
57746;SDS011;43580;44.014;20.466;2023-12-07T08:01:36;87.20;;;51.13;;
57746;SDS011;43580;44.014;20.466;2023-12-07T08:04:02;116.72;;;80.43;;
57746;SDS011;43580;44.014;20.466;2023-12-07T08:06:28;113.30;;;69.38;;
57746;SDS011;43580;44.014;20.466;2023-12-07T08:08:54;84.78;;;49.60;;
57746;SDS011;43580;44.014;20.466;2023-12-07T08:11:21;82.55;;;47.40;;
57746;SDS011;43580;44.014;20.466;2023-12-07T08:13:47;70.53;;;40.75;;
57746;SDS011;43580;44.014;20.466;2023-12-07T08:16:13;71.80;;;42.05;;
57746;SDS011;43580;44.014;20.466;2023-12-07T08:18:39;77.40;;;44.88;;
57746;SDS011;43580;44.014;20.466;2023-12-07T08:21:05;111.82;;;66.70;;
57746;SDS011;43580;44.014;20.466;2023-12-07T08:23:33;146.98;;;83.47;;
57746;SDS011;43580;44.014;20.466;2023-12-07T08:26:02;171.05;;;103.18;;
57746;SDS011;43580;44.014;20.466;2023-12-07T08:28:28;161.80;;;84.75;;
57746;SDS011;43580;44.014;20.466;2023-12-07T08:30:54;181.05;;;90.85;;
57746;SDS011;43580;44.014;20.466;2023-12-07T08:33:20;201.63;;;101.18;;
57746;SDS011;43580;44.014;20.466;2023-12-07T08:35:46;181.27;;;91.30;;
57746;SDS011;43580;44.014;20.466;2023-12-07T08:38:14;191.43;;;97.18;;
57746;SDS011;43580;44.014;20.466;2023-12-07T08:40:40;210.85;;;101.70;;
57746;SDS011;43580;44.014;20.466;2023-12-07T08:43:07;207.27;;;97.18;;
57746;SDS011;43580;44.014;20.466;2023-12-07T08:45:33;117.15;;;64.00;;
57746;SDS011;43580;44.014;20.466;2023-12-07T08:48:03;163.02;;;102.57;;
57746;SDS011;43580;44.014;20.466;2023-12-07T08:50:34;72.72;;;42.22;;
57746;SDS011;43580;44.014;20.466;2023-12-07T08:53:03;66.78;;;37.78;;
57746;SDS011;43580;44.014;20.466;2023-12-07T08:55:29;66.82;;;39.63;;
57746;SDS011;43580;44.014;20.466;2023-12-07T08:57:58;80.30;;;44.95;;
57746;SDS011;43580;44.014;20.466;2023-12-07T09:00:25;78.80;;;47.90;;
57746;SDS011;43580;44.014;20.466;2023-12-07T09:02:51;101.70;;;63.08;;
57746;SDS011;43580;44.014;20.466;2023-12-07T09:05:18;45.30;;;29.15;;
57746;SDS011;43580;44.014;20.466;2023-12-07T09:07:46;52.22;;;32.10;;
57746;SDS011;43580;44.014;20.466;2023-12-07T09:10:12;36.75;;;24.50;;
57746;SDS011;43580;44.014;20.466;2023-12-07T09:12:38;48.33;;;28.85;;
57746;SDS011;43580;44.014;20.466;2023-12-07T09:15:07;34.92;;;24.25;;
57746;SDS011;43580;44.014;20.466;2023-12-07T09:17:38;40.20;;;25.20;;
57746;SDS011;43580;44.014;20.466;2023-12-07T09:20:07;46.10;;;26.38;;
57746;SDS011;43580;44.014;20.466;2023-12-07T09:22:38;42.28;;;25.20;;
57746;SDS011;43580;44.014;20.466;2023-12-07T09:25:04;54.90;;;33.50;;
57746;SDS011;43580;44.014;20.466;2023-12-07T09:27:32;40.50;;;22.45;;
57746;SDS011;43580;44.014;20.466;2023-12-07T09:30:00;31.23;;;22.35;;
57746;SDS011;43580;44.014;20.466;2023-12-07T09:32:26;63.78;;;35.50;;
57746;SDS011;43580;44.014;20.466;2023-12-07T09:34:53;45.72;;;28.50;;
57746;SDS011;43580;44.014;20.466;2023-12-07T09:37:19;45.03;;;26.92;;
57746;SDS011;43580;44.014;20.466;2023-12-07T09:39:45;30.10;;;20.13;;
57746;SDS011;43580;44.014;20.466;2023-12-07T09:42:11;43.15;;;23.73;;
57746;SDS011;43580;44.014;20.466;2023-12-07T09:44:37;28.65;;;18.50;;
57746;SDS011;43580;44.014;20.466;2023-12-07T09:47:06;35.45;;;22.02;;
57746;SDS011;43580;44.014;20.466;2023-12-07T09:49:36;32.70;;;19.70;;
57746;SDS011;43580;44.014;20.466;2023-12-07T09:52:03;36.85;;;22.00;;
57746;SDS011;43580;44.014;20.466;2023-12-07T09:54:29;34.10;;;22.35;;
57746;SDS011;43580;44.014;20.466;2023-12-07T09:56:56;34.20;;;20.63;;
57746;SDS011;43580;44.014;20.466;2023-12-07T09:59:22;32.45;;;21.17;;
57746;SDS011;43580;44.014;20.466;2023-12-07T10:01:51;32.38;;;21.38;;
57746;SDS011;43580;44.014;20.466;2023-12-07T10:04:20;35.95;;;22.63;;
57746;SDS011;43580;44.014;20.466;2023-12-07T10:06:53;34.88;;;21.08;;
57746;SDS011;43580;44.014;20.466;2023-12-07T10:09:20;33.33;;;20.75;;
57746;SDS011;43580;44.014;20.466;2023-12-07T10:11:47;32.92;;;19.83;;
57746;SDS011;43580;44.014;20.466;2023-12-07T10:14:14;46.20;;;27.33;;
57746;SDS011;43580;44.014;20.466;2023-12-07T10:16:52;67.13;;;50.85;;
57746;SDS011;43580;44.014;20.466;2023-12-07T10:19:20;42.50;;;24.48;;
57746;SDS011;43580;44.014;20.466;2023-12-07T10:21:50;32.25;;;19.10;;
57746;SDS011;43580;44.014;20.466;2023-12-07T10:24:20;29.00;;;17.63;;
57746;SDS011;43580;44.014;20.466;2023-12-07T10:26:49;29.05;;;20.10;;
57746;SDS011;43580;44.014;20.466;2023-12-07T10:29:18;31.02;;;19.58;;
57746;SDS011;43580;44.014;20.466;2023-12-07T10:31:45;26.15;;;16.45;;
57746;SDS011;43580;44.014;20.466;2023-12-07T10:34:15;27.38;;;18.95;;
57746;SDS011;43580;44.014;20.466;2023-12-07T10:36:45;29.70;;;21.02;;
57746;SDS011;43580;44.014;20.466;2023-12-07T10:39:12;29.85;;;18.77;;
57746;SDS011;43580;44.014;20.466;2023-12-07T10:41:38;35.83;;;22.50;;
57746;SDS011;43580;44.014;20.466;2023-12-07T10:44:07;37.55;;;25.52;;
57746;SDS011;43580;44.014;20.466;2023-12-07T10:46:34;28.80;;;19.13;;
57746;SDS011;43580;44.014;20.466;2023-12-07T10:49:04;32.35;;;21.75;;
57746;SDS011;43580;44.014;20.466;2023-12-07T10:54:01;58.72;;;33.80;;
57746;SDS011;43580;44.014;20.466;2023-12-07T10:56:43;38.60;;;22.42;;
57746;SDS011;43580;44.014;20.466;2023-12-07T10:59:09;31.60;;;19.45;;
57746;SDS011;43580;44.014;20.466;2023-12-07T11:01:41;56.78;;;36.83;;
57746;SDS011;43580;44.014;20.466;2023-12-07T11:04:08;33.80;;;20.45;;
57746;SDS011;43580;44.014;20.466;2023-12-07T11:06:37;35.00;;;21.52;;
57746;SDS011;43580;44.014;20.466;2023-12-07T11:09:05;31.70;;;20.13;;
57746;SDS011;43580;44.014;20.466;2023-12-07T11:13:59;36.50;;;22.88;;
57746;SDS011;43580;44.014;20.466;2023-12-07T11:16:29;53.78;;;33.65;;
57746;SDS011;43580;44.014;20.466;2023-12-07T11:18:56;33.38;;;23.15;;
57746;SDS011;43580;44.014;20.466;2023-12-07T11:21:22;32.22;;;20.90;;
57746;SDS011;43580;44.014;20.466;2023-12-07T11:23:48;30.25;;;19.15;;
57746;SDS011;43580;44.014;20.466;2023-12-07T11:26:14;32.95;;;20.58;;
57746;SDS011;43580;44.014;20.466;2023-12-07T11:28:40;35.78;;;23.08;;
57746;SDS011;43580;44.014;20.466;2023-12-07T11:31:07;37.60;;;22.42;;
57746;SDS011;43580;44.014;20.466;2023-12-07T11:33:33;33.33;;;21.30;;
57746;SDS011;43580;44.014;20.466;2023-12-07T11:38:31;67.28;;;38.08;;
57746;SDS011;43580;44.014;20.466;2023-12-07T11:40:57;51.83;;;32.88;;
57746;SDS011;43580;44.014;20.466;2023-12-07T11:46:00;32.90;;;19.88;;
57746;SDS011;43580;44.014;20.466;2023-12-07T11:48:26;22.83;;;13.45;;
57746;SDS011;43580;44.014;20.466;2023-12-07T11:50:53;18.75;;;12.10;;
57746;SDS011;43580;44.014;20.466;2023-12-07T11:53:21;29.70;;;16.58;;
57746;SDS011;43580;44.014;20.466;2023-12-07T11:55:48;22.58;;;14.32;;
57746;SDS011;43580;44.014;20.466;2023-12-07T11:58:14;16.55;;;10.63;;
57746;SDS011;43580;44.014;20.466;2023-12-07T12:00:40;40.53;;;23.27;;
57746;SDS011;43580;44.014;20.466;2023-12-07T12:03:06;23.75;;;13.40;;
57746;SDS011;43580;44.014;20.466;2023-12-07T12:05:32;18.77;;;11.98;;
57746;SDS011;43580;44.014;20.466;2023-12-07T12:07:58;15.82;;;10.23;;
57746;SDS011;43580;44.014;20.466;2023-12-07T12:10:24;28.67;;;16.25;;
57746;SDS011;43580;44.014;20.466;2023-12-07T12:12:53;28.42;;;16.45;;
57746;SDS011;43580;44.014;20.466;2023-12-07T12:15:19;29.13;;;17.85;;
57746;SDS011;43580;44.014;20.466;2023-12-07T12:17:48;29.55;;;17.02;;
57746;SDS011;43580;44.014;20.466;2023-12-07T12:20:14;28.38;;;16.67;;
57746;SDS011;43580;44.014;20.466;2023-12-07T12:22:43;25.70;;;16.27;;
57746;SDS011;43580;44.014;20.466;2023-12-07T12:25:09;15.82;;;10.10;;
57746;SDS011;43580;44.014;20.466;2023-12-07T12:27:36;24.73;;;15.30;;
57746;SDS011;43580;44.014;20.466;2023-12-07T12:30:03;34.38;;;19.88;;
57746;SDS011;43580;44.014;20.466;2023-12-07T12:32:41;17.85;;;11.32;;
57746;SDS011;43580;44.014;20.466;2023-12-07T12:35:08;22.08;;;13.02;;
57746;SDS011;43580;44.014;20.466;2023-12-07T12:37:34;20.33;;;11.52;;
57746;SDS011;43580;44.014;20.466;2023-12-07T12:40:06;26.40;;;15.40;;
57746;SDS011;43580;44.014;20.466;2023-12-07T12:42:33;18.92;;;12.23;;
57746;SDS011;43580;44.014;20.466;2023-12-07T12:45:03;21.67;;;15.38;;
57746;SDS011;43580;44.014;20.466;2023-12-07T12:47:29;38.90;;;28.75;;
57746;SDS011;43580;44.014;20.466;2023-12-07T12:49:56;29.65;;;21.08;;
57746;SDS011;43580;44.014;20.466;2023-12-07T12:52:29;23.92;;;15.50;;
57746;SDS011;43580;44.014;20.466;2023-12-07T12:54:56;20.80;;;12.30;;
57746;SDS011;43580;44.014;20.466;2023-12-07T12:57:22;22.02;;;14.38;;
57746;SDS011;43580;44.014;20.466;2023-12-07T12:59:50;18.02;;;11.20;;
57746;SDS011;43580;44.014;20.466;2023-12-07T13:02:19;21.13;;;14.77;;
57746;SDS011;43580;44.014;20.466;2023-12-07T13:04:45;22.38;;;13.90;;
57746;SDS011;43580;44.014;20.466;2023-12-07T13:07:12;13.25;;;9.20;;
57746;SDS011;43580;44.014;20.466;2023-12-07T13:09:38;16.98;;;12.00;;
57746;SDS011;43580;44.014;20.466;2023-12-07T13:12:05;21.42;;;13.65;;
57746;SDS011;43580;44.014;20.466;2023-12-07T13:14:31;24.92;;;16.48;;
57746;SDS011;43580;44.014;20.466;2023-12-07T13:17:00;20.83;;;14.10;;
57746;SDS011;43580;44.014;20.466;2023-12-07T13:19:29;30.23;;;16.73;;
57746;SDS011;43580;44.014;20.466;2023-12-07T13:21:55;18.80;;;12.18;;
57746;SDS011;43580;44.014;20.466;2023-12-07T13:24:21;13.43;;;9.60;;
57746;SDS011;43580;44.014;20.466;2023-12-07T13:26:47;18.08;;;9.93;;
57746;SDS011;43580;44.014;20.466;2023-12-07T13:29:16;15.15;;;10.32;;
57746;SDS011;43580;44.014;20.466;2023-12-07T13:31:42;19.33;;;13.05;;
57746;SDS011;43580;44.014;20.466;2023-12-07T13:34:08;19.85;;;10.90;;
57746;SDS011;43580;44.014;20.466;2023-12-07T13:36:34;12.40;;;8.02;;
57746;SDS011;43580;44.014;20.466;2023-12-07T13:39:01;23.95;;;14.77;;
57746;SDS011;43580;44.014;20.466;2023-12-07T13:41:29;33.40;;;20.33;;
57746;SDS011;43580;44.014;20.466;2023-12-07T13:43:55;36.25;;;27.67;;
57746;SDS011;43580;44.014;20.466;2023-12-07T13:46:22;16.55;;;12.68;;
57746;SDS011;43580;44.014;20.466;2023-12-07T13:48:49;28.90;;;17.55;;
57746;SDS011;43580;44.014;20.466;2023-12-07T13:51:15;23.35;;;13.55;;
57746;SDS011;43580;44.014;20.466;2023-12-07T13:53:42;25.67;;;17.10;;
57746;SDS011;43580;44.014;20.466;2023-12-07T13:56:08;22.33;;;14.13;;
57746;SDS011;43580;44.014;20.466;2023-12-07T13:58:35;32.90;;;21.30;;
57746;SDS011;43580;44.014;20.466;2023-12-07T14:01:01;23.05;;;14.63;;
57746;SDS011;43580;44.014;20.466;2023-12-07T14:03:27;22.85;;;14.55;;
57746;SDS011;43580;44.014;20.466;2023-12-07T14:05:56;26.90;;;18.30;;
57746;SDS011;43580;44.014;20.466;2023-12-07T14:08:22;25.08;;;16.00;;
57746;SDS011;43580;44.014;20.466;2023-12-07T14:10:51;31.08;;;20.75;;
57746;SDS011;43580;44.014;20.466;2023-12-07T14:13:19;18.23;;;10.73;;
57746;SDS011;43580;44.014;20.466;2023-12-07T14:15:45;21.70;;;13.40;;
57746;SDS011;43580;44.014;20.466;2023-12-07T14:18:11;23.20;;;14.40;;